createdAt,value
2017-12-27T00:00:40.121Z,98190.67
2017-12-27T00:03:13.166Z,98191.42
2017-12-27T00:05:46.180Z,98193.94
2017-12-27T00:08:19.246Z,98192.43
2017-12-27T00:10:52.068Z,98184.36
2017-12-27T00:13:25.033Z,98169.03
2017-12-27T00:15:58.123Z,98156.87
2017-12-27T00:18:31.198Z,98147.86
2017-12-27T00:21:04.136Z,98137.09
2017-12-27T00:23:37.100Z,98134.59
2017-12-27T00:26:10.053Z,98128.23
2017-12-27T00:28:42.949Z,98123.28
2017-12-27T00:31:10.362Z,98121.95
2017-12-27T00:33:37.771Z,98121.77
2017-12-27T00:36:05.181Z,98119.05
2017-12-27T00:38:32.605Z,98115.02
2017-12-27T00:41:00.000Z,98111.80
2017-12-27T00:43:27.405Z,98106.43
2017-12-27T00:45:54.814Z,98099.76
2017-12-27T00:48:22.208Z,98099.05
2017-12-27T00:50:49.607Z,98091.88
2017-12-27T00:53:17.020Z,98075.39
2017-12-27T00:55:44.424Z,98077.83
2017-12-27T00:58:11.845Z,98064.58
2017-12-27T01:00:39.266Z,98059.38
2017-12-27T01:03:06.670Z,98052.77
2017-12-27T01:05:34.069Z,98041.74
2017-12-27T01:08:01.516Z,98033.67
2017-12-27T01:10:28.928Z,98024.54
2017-12-27T01:12:56.334Z,98014.72
2017-12-27T01:15:23.745Z,97994.67
2017-12-27T01:17:51.211Z,97989.05
2017-12-27T01:20:18.608Z,97988.72
2017-12-27T01:22:46.040Z,97985.48
2017-12-27T01:25:13.450Z,97973.94
2017-12-27T01:27:40.852Z,97967.68
2017-12-27T01:30:08.269Z,97954.33
2017-12-27T01:32:35.680Z,97945.75
2017-12-27T01:35:03.096Z,97930.66
2017-12-27T01:37:30.517Z,97937.88
2017-12-27T01:39:57.940Z,97928.55
2017-12-27T01:42:25.330Z,97933.44
2017-12-27T01:44:52.798Z,97927.16
2017-12-27T01:47:20.190Z,97920.21
2017-12-27T01:49:47.589Z,97912.33
2017-12-27T01:52:15.000Z,97906.94
2017-12-27T01:54:42.417Z,97896.66
2017-12-27T01:57:09.812Z,97888.22
2017-12-27T01:59:37.220Z,97882.27
2017-12-27T02:02:04.619Z,97870.88
2017-12-27T02:04:32.008Z,97870.94
2017-12-27T02:06:59.413Z,97857.06
2017-12-27T02:09:26.813Z,97861.33
2017-12-27T02:11:54.228Z,97852.52
2017-12-27T02:14:21.636Z,97853.23
2017-12-27T02:16:49.037Z,97830.72
2017-12-27T02:19:16.436Z,97829.81
2017-12-27T02:21:43.841Z,97817.42
2017-12-27T02:24:11.232Z,97811.16
2017-12-27T02:26:38.636Z,97799.84
2017-12-27T02:29:06.044Z,97792.23
2017-12-27T02:31:33.448Z,97790.00
2017-12-27T02:34:00.860Z,97776.95
2017-12-27T02:36:28.260Z,97769.78
2017-12-27T02:38:56.620Z,97757.70
2017-12-27T02:41:24.008Z,97760.02
2017-12-27T02:43:51.412Z,97750.48
2017-12-27T02:46:18.825Z,97730.92
2017-12-27T02:48:46.224Z,97727.77
2017-12-27T02:51:13.621Z,97728.86
2017-12-27T02:53:41.025Z,97719.60
2017-12-27T02:56:08.425Z,97713.36
2017-12-27T02:58:35.836Z,97722.63
2017-12-27T03:01:03.245Z,97708.70
2017-12-27T03:03:30.647Z,97704.73
2017-12-27T03:05:58.045Z,97696.70
2017-12-27T03:08:25.445Z,97689.30
2017-12-27T03:10:52.849Z,97678.27
2017-12-27T03:13:20.297Z,97673.16
2017-12-27T03:15:47.693Z,97666.54
2017-12-27T03:18:15.084Z,97663.34
2017-12-27T03:20:42.493Z,97656.53
2017-12-27T03:23:09.928Z,97656.81
2017-12-27T03:25:37.317Z,97649.42
2017-12-27T03:28:04.713Z,97634.04
2017-12-27T03:30:32.117Z,97636.96
2017-12-27T03:32:59.518Z,97630.11
2017-12-27T03:35:26.936Z,97632.04
2017-12-27T03:37:54.341Z,97619.86
2017-12-27T03:40:21.734Z,97613.00
2017-12-27T03:42:49.124Z,97608.18
2017-12-27T03:45:16.517Z,97600.88
2017-12-27T03:47:43.947Z,97598.61
2017-12-27T03:50:11.344Z,97593.22
2017-12-27T03:52:38.740Z,97578.63
2017-12-27T03:55:06.152Z,97582.56
2017-12-27T03:57:33.553Z,97568.55
2017-12-27T04:00:00.940Z,97566.58
2017-12-27T04:02:28.344Z,97559.87
2017-12-27T04:04:55.736Z,97556.98
2017-12-27T04:07:23.140Z,97546.63
2017-12-27T04:09:50.535Z,97539.81
2017-12-27T04:12:17.933Z,97528.52
2017-12-27T04:14:45.328Z,97515.69
2017-12-27T04:17:12.794Z,97507.34
2017-12-27T04:19:40.189Z,97495.84
2017-12-27T04:22:07.592Z,97481.69
2017-12-27T04:24:35.009Z,97479.05
2017-12-27T04:27:02.400Z,97469.27
2017-12-27T04:29:29.800Z,97466.62
2017-12-27T04:31:57.205Z,97454.87
2017-12-27T04:34:24.601Z,97448.94
2017-12-27T04:36:52.004Z,97459.66
2017-12-27T04:39:19.401Z,97455.84
2017-12-27T04:41:46.800Z,97447.66
2017-12-27T04:44:14.214Z,97432.61
2017-12-27T04:46:41.608Z,97443.61
2017-12-27T04:49:09.007Z,97436.06
2017-12-27T04:51:36.408Z,97441.91
2017-12-27T04:54:03.798Z,97443.36
2017-12-27T04:56:31.204Z,97449.08
2017-12-27T04:58:58.610Z,97446.30
2017-12-27T05:01:26.004Z,97441.25
2017-12-27T05:03:53.413Z,97425.79
2017-12-27T05:06:20.809Z,97418.25
2017-12-27T05:08:48.217Z,97413.22
2017-12-27T05:11:15.609Z,97417.58
2017-12-27T05:13:43.025Z,97412.66
2017-12-27T05:16:10.430Z,97411.23
2017-12-27T05:18:37.820Z,97406.58
2017-12-27T05:21:05.232Z,97405.66
2017-12-27T05:23:32.721Z,97392.56
2017-12-27T05:26:00.119Z,97397.19
2017-12-27T05:28:27.541Z,97385.00
2017-12-27T05:30:54.936Z,97386.59
2017-12-27T05:33:22.360Z,97390.02
2017-12-27T05:35:49.760Z,97390.30
2017-12-27T05:38:17.174Z,97390.16
2017-12-27T05:40:44.576Z,97383.01
2017-12-27T05:43:11.968Z,97374.23
2017-12-27T05:45:39.376Z,97379.37
2017-12-27T05:48:06.784Z,97379.24
2017-12-27T05:50:34.176Z,97383.39
2017-12-27T05:53:01.601Z,97379.81
2017-12-27T05:55:28.996Z,97373.09
2017-12-27T05:57:56.409Z,97371.48
2017-12-27T06:00:23.808Z,97370.81
2017-12-27T06:02:51.212Z,97367.25
2017-12-27T06:05:18.616Z,97368.70
2017-12-27T06:07:46.012Z,97366.34
2017-12-27T06:10:13.437Z,97366.46
2017-12-27T06:12:40.833Z,97368.58
2017-12-27T06:15:08.235Z,97367.00
2017-12-27T06:17:35.631Z,97364.64
2017-12-27T06:20:03.020Z,97361.59
2017-12-27T06:22:30.430Z,97350.88
2017-12-27T06:24:57.836Z,97355.27
2017-12-27T06:27:25.232Z,97345.98
2017-12-27T06:29:52.637Z,97348.10
2017-12-27T06:32:20.033Z,97350.23
2017-12-27T06:34:47.451Z,97352.10
2017-12-27T06:37:14.846Z,97353.02
2017-12-27T06:39:42.248Z,97347.20
2017-12-27T06:42:09.657Z,97341.80
2017-12-27T06:44:37.060Z,97346.16
2017-12-27T06:47:04.470Z,97338.71
2017-12-27T06:49:31.860Z,97343.75
2017-12-27T06:51:59.288Z,97336.77
2017-12-27T06:54:26.684Z,97335.42
2017-12-27T06:56:54.089Z,97325.91
2017-12-27T06:59:21.500Z,97323.36
2017-12-27T07:01:48.902Z,97323.98
2017-12-27T07:04:16.296Z,97321.44
2017-12-27T07:06:43.707Z,97318.13
2017-12-27T07:09:11.098Z,97314.70
2017-12-27T07:11:38.512Z,97314.80
2017-12-27T07:14:05.908Z,97307.91
2017-12-27T07:16:33.313Z,97308.30
2017-12-27T07:19:00.728Z,97303.38
2017-12-27T07:21:28.117Z,97301.53
2017-12-27T07:23:55.529Z,97306.80
2017-12-27T07:26:22.924Z,97301.90
2017-12-27T07:28:50.317Z,97294.03
2017-12-27T07:31:17.716Z,97300.14
2017-12-27T07:33:45.108Z,97294.58
2017-12-27T07:36:12.525Z,97296.00
2017-12-27T07:38:39.921Z,97302.92
2017-12-27T07:41:07.320Z,97296.95
2017-12-27T07:43:34.732Z,97295.98
2017-12-27T07:46:02.124Z,97302.89
2017-12-27T07:48:29.540Z,97303.14
2017-12-27T07:50:56.934Z,97308.72
2017-12-27T07:53:24.340Z,97306.19
2017-12-27T07:55:51.740Z,97307.66
2017-12-27T07:58:19.140Z,97306.02
2017-12-27T08:00:46.544Z,97301.00
2017-12-27T08:03:13.942Z,97299.62
2017-12-27T08:05:41.344Z,97285.62
2017-12-27T08:08:08.755Z,97284.41
2017-12-27T08:10:36.145Z,97281.11
2017-12-27T08:13:03.569Z,97281.89
2017-12-27T08:15:30.969Z,97274.13
2017-12-27T08:17:58.372Z,97270.94
2017-12-27T08:20:25.779Z,97275.39
2017-12-27T08:22:53.169Z,97271.67
2017-12-27T08:25:20.585Z,97272.48
2017-12-27T08:27:48.009Z,97272.08
2017-12-27T08:30:15.408Z,97273.66
2017-12-27T08:32:42.822Z,97269.70
2017-12-27T08:35:10.238Z,97267.17
2017-12-27T08:37:37.688Z,97272.17
2017-12-27T08:40:05.157Z,97267.69
2017-12-27T08:42:32.537Z,97271.97
2017-12-27T08:44:59.948Z,97273.94
2017-12-27T08:47:27.344Z,97270.66
2017-12-27T08:49:54.777Z,97268.94
2017-12-27T08:52:22.193Z,97262.84
2017-12-27T08:54:49.612Z,97261.42
2017-12-27T08:57:17.026Z,97267.52
2017-12-27T08:59:44.437Z,97259.34
2017-12-27T09:02:11.876Z,97263.69
2017-12-27T09:04:39.292Z,97264.63
2017-12-27T09:07:06.684Z,97265.30
2017-12-27T09:09:34.093Z,97269.55
2017-12-27T09:12:01.510Z,97260.33
2017-12-27T09:14:28.961Z,97262.83
2017-12-27T09:16:56.346Z,97267.20
2017-12-27T09:19:23.805Z,97256.34
2017-12-27T09:21:51.200Z,97248.70
2017-12-27T09:24:18.648Z,97244.85
2017-12-27T09:26:46.084Z,97255.42
2017-12-27T09:29:13.492Z,97255.83
2017-12-27T09:31:41.019Z,97259.15
2017-12-27T09:34:08.461Z,97261.27
2017-12-27T09:36:36.757Z,97263.91
2017-12-27T09:39:04.486Z,97266.30
2017-12-27T09:41:31.916Z,97266.67
2017-12-27T09:43:59.315Z,97271.55
2017-12-27T09:46:26.731Z,97274.86
2017-12-27T09:48:54.149Z,97278.30
2017-12-27T09:51:21.573Z,97284.23
2017-12-27T09:53:48.993Z,97284.39
2017-12-27T09:56:16.481Z,97282.68
2017-12-27T09:58:43.914Z,97277.11
2017-12-27T10:01:11.322Z,97281.05
2017-12-27T10:03:38.740Z,97274.17
2017-12-27T10:06:06.206Z,97267.80
2017-12-27T10:08:34.681Z,97272.98
2017-12-27T10:11:02.101Z,97276.80
2017-12-27T10:13:29.548Z,97261.61
2017-12-27T10:15:56.992Z,97261.34
2017-12-27T10:31:48.252Z,97255.45
2017-12-27T10:34:15.676Z,97251.74
2017-12-27T10:36:43.088Z,97246.05
2017-12-27T10:39:10.498Z,97234.25
2017-12-27T10:41:37.908Z,97243.93
2017-12-27T10:44:05.332Z,97238.39
2017-12-27T10:46:32.776Z,97225.30
2017-12-27T10:49:00.177Z,97229.31
2017-12-27T10:51:27.568Z,97224.55
2017-12-27T10:53:55.106Z,97215.94
2017-12-27T10:56:22.508Z,97219.53
2017-12-27T10:58:49.926Z,97218.62
2017-12-27T11:01:17.375Z,97217.05
2017-12-27T11:03:44.804Z,97214.81
2017-12-27T11:06:12.288Z,97217.58
2017-12-27T11:08:39.704Z,97227.23
2017-12-27T11:11:07.120Z,97229.13
2017-12-27T11:13:34.535Z,97224.75
2017-12-27T11:16:01.929Z,97221.55
2017-12-27T11:18:46.241Z,97222.22
2017-12-27T11:21:13.640Z,97222.20
2017-12-27T11:23:41.061Z,97224.06
2017-12-27T11:26:08.466Z,97217.73
2017-12-27T11:28:35.881Z,97228.30
2017-12-27T11:31:03.294Z,97226.05
2017-12-27T11:33:30.712Z,97214.00
2017-12-27T11:35:58.138Z,97217.46
2017-12-27T11:38:25.537Z,97211.78
2017-12-27T11:40:52.945Z,97216.28
2017-12-27T11:43:20.401Z,97213.23
2017-12-27T11:45:47.822Z,97213.24
2017-12-27T11:48:15.249Z,97204.61
2017-12-27T11:50:42.645Z,97201.98
2017-12-27T11:53:10.052Z,97203.43
2017-12-27T11:55:37.478Z,97202.77
2017-12-27T11:58:04.899Z,97198.13
2017-12-27T12:00:43.806Z,97193.59
2017-12-27T12:03:11.212Z,97193.33
2017-12-27T12:05:38.636Z,97188.18
2017-12-27T12:08:08.308Z,97186.57
2017-12-27T12:10:35.719Z,97182.19
2017-12-27T12:13:03.165Z,97177.07
2017-12-27T12:15:30.600Z,97178.00
2017-12-27T12:17:58.009Z,97167.52
2017-12-27T12:20:25.421Z,97165.25
2017-12-27T12:22:54.075Z,97168.02
2017-12-27T12:25:21.525Z,97164.45
2017-12-27T12:27:48.972Z,97155.26
2017-12-27T12:30:16.377Z,97155.00
2017-12-27T12:32:43.849Z,97144.25
2017-12-27T12:35:11.242Z,97150.31
2017-12-27T12:37:38.649Z,97146.05
2017-12-27T12:40:06.056Z,97140.97
2017-12-27T12:42:33.469Z,97134.85
2017-12-27T12:45:00.880Z,97134.41
2017-12-27T12:47:28.297Z,97132.31
2017-12-27T12:49:55.709Z,97131.23
2017-12-27T12:52:23.129Z,97128.95
2017-12-27T12:54:50.554Z,97134.16
2017-12-27T12:57:17.956Z,97134.89
2017-12-27T12:59:45.374Z,97126.96
2017-12-27T13:02:12.828Z,97126.38
2017-12-27T13:04:40.232Z,97120.18
2017-12-27T13:07:07.644Z,97123.34
2017-12-27T13:09:35.064Z,97119.99
2017-12-27T13:12:02.476Z,97112.17
2017-12-27T13:14:29.897Z,97118.41
2017-12-27T13:16:57.301Z,97125.48
2017-12-27T13:19:24.714Z,97120.33
2017-12-27T13:21:52.120Z,97120.89
2017-12-27T13:24:19.530Z,97122.88
2017-12-27T13:26:46.957Z,97117.45
2017-12-27T13:29:14.368Z,97124.64
2017-12-27T13:31:41.781Z,97128.63
2017-12-27T13:34:09.204Z,97122.73
2017-12-27T13:36:36.624Z,97120.55
2017-12-27T13:39:04.048Z,97118.45
2017-12-27T13:41:31.456Z,97118.30
2017-12-27T13:43:58.880Z,97121.33
2017-12-27T13:46:26.290Z,97110.70
2017-12-27T13:48:53.692Z,97124.12
2017-12-27T13:51:21.122Z,97118.05
2017-12-27T13:53:48.552Z,97124.38
2017-12-27T13:56:15.954Z,97130.77
2017-12-27T13:58:43.391Z,97128.25
2017-12-27T14:01:10.800Z,97123.20
2017-12-27T14:03:38.239Z,97119.07
2017-12-27T14:06:05.666Z,97117.34
2017-12-27T14:08:33.060Z,97116.16
2017-12-27T14:11:00.500Z,97119.44
2017-12-27T14:13:29.928Z,97116.02
2017-12-27T14:15:57.345Z,97122.02
2017-12-27T14:18:24.742Z,97123.09
2017-12-27T14:20:52.180Z,97132.02
2017-12-27T14:23:19.585Z,97129.51
2017-12-27T14:25:46.985Z,97125.67
2017-12-27T14:28:14.420Z,97132.60
2017-12-27T14:30:42.265Z,97128.11
2017-12-27T14:33:09.671Z,97133.81
2017-12-27T14:35:37.112Z,97138.05
2017-12-27T14:38:04.578Z,97142.44
2017-12-27T14:40:31.997Z,97145.09
2017-12-27T14:42:59.408Z,97142.58
2017-12-27T14:45:26.823Z,97147.37
2017-12-27T14:47:54.235Z,97154.67
2017-12-27T14:50:21.644Z,97164.33
2017-12-27T14:52:49.963Z,97175.89
2017-12-27T14:55:17.361Z,97166.48
2017-12-27T14:57:44.778Z,97171.94
2017-12-27T15:00:12.206Z,97170.34
2017-12-27T15:02:39.630Z,97171.27
2017-12-27T15:05:07.050Z,97172.09
2017-12-27T15:07:34.456Z,97172.64
2017-12-27T15:10:01.861Z,97176.64
2017-12-27T15:12:29.313Z,97179.97
2017-12-27T15:14:56.732Z,97184.35
2017-12-27T15:17:25.013Z,97184.20
2017-12-27T15:19:52.416Z,97186.72
2017-12-27T15:22:19.824Z,97184.61
2017-12-27T15:24:54.430Z,97191.76
2017-12-27T15:27:22.784Z,97179.04
2017-12-27T15:29:50.189Z,97176.66
2017-12-27T15:32:18.381Z,97165.80
2017-12-27T15:34:45.808Z,97175.32
2017-12-27T15:37:13.247Z,97173.34
2017-12-27T15:39:40.668Z,97183.41
2017-12-27T15:42:08.089Z,97182.47
2017-12-27T15:44:35.505Z,97192.53
2017-12-27T15:47:02.904Z,97183.80
2017-12-27T15:49:30.325Z,97182.17
2017-12-27T15:51:57.745Z,97178.09
2017-12-27T15:54:25.144Z,97176.36
2017-12-27T15:56:52.556Z,97181.02
2017-12-27T15:59:20.848Z,97173.74
2017-12-27T16:01:48.281Z,97177.70
2017-12-27T16:04:15.695Z,97182.50
2017-12-27T16:06:43.122Z,97187.39
2017-12-27T16:09:10.545Z,97197.72
2017-12-27T16:11:37.960Z,97200.09
2017-12-27T16:14:05.381Z,97196.54
2017-12-27T16:16:32.805Z,97205.02
2017-12-27T16:19:00.226Z,97202.22
2017-12-27T16:21:27.655Z,97203.56
2017-12-27T16:23:55.072Z,97203.95
2017-12-27T16:26:22.525Z,97203.55
2017-12-27T16:28:49.929Z,97201.17
2017-12-27T16:31:17.357Z,97204.48
2017-12-27T16:33:44.767Z,97205.28
2017-12-27T16:36:12.166Z,97206.33
2017-12-27T16:38:39.585Z,97206.20
2017-12-27T16:41:06.989Z,97212.30
2017-12-27T16:43:34.401Z,97215.07
2017-12-27T16:46:01.813Z,97214.43
2017-12-27T16:48:29.218Z,97222.64
2017-12-27T16:50:56.624Z,97224.63
2017-12-27T16:53:24.046Z,97231.77
2017-12-27T16:55:51.452Z,97232.44
2017-12-27T16:58:18.852Z,97224.22
2017-12-27T17:03:21.596Z,97227.68
2017-12-27T17:05:49.017Z,97234.30
2017-12-27T17:08:16.428Z,97234.42
2017-12-27T17:10:43.868Z,97245.92
2017-12-27T17:13:11.270Z,97241.84
2017-12-27T17:15:38.684Z,97243.17
2017-12-27T17:18:06.086Z,97239.17
2017-12-27T17:20:33.538Z,97249.52
2017-12-27T17:23:00.934Z,97256.93
2017-12-27T17:25:28.337Z,97256.13
2017-12-27T17:27:55.752Z,97254.56
2017-12-27T17:30:23.162Z,97261.45
2017-12-27T17:32:50.560Z,97261.42
2017-12-27T17:35:17.977Z,97259.30
2017-12-27T17:37:45.379Z,97259.43
2017-12-27T17:40:12.808Z,97252.37
2017-12-27T17:42:40.232Z,97263.75
2017-12-27T17:45:07.651Z,97263.95
2017-12-27T17:47:35.064Z,97263.68
2017-12-27T17:50:02.481Z,97265.64
2017-12-27T17:52:30.486Z,97262.23
2017-12-27T17:54:57.929Z,97261.05
2017-12-27T17:57:25.345Z,97260.77
2017-12-27T17:59:52.764Z,97268.19
2017-12-27T18:02:20.181Z,97271.41
2017-12-27T18:04:47.601Z,97262.41
2017-12-27T18:07:15.025Z,97272.33
2017-12-27T18:09:42.470Z,97267.97
2017-12-27T18:12:09.832Z,97277.09
2017-12-27T18:14:37.241Z,97281.33
2017-12-27T18:17:05.274Z,97284.64
2017-12-27T18:19:32.749Z,97285.45
2017-12-27T18:22:00.141Z,97286.22
2017-12-27T18:24:27.553Z,97291.80
2017-12-27T18:26:54.964Z,97287.05
2017-12-27T18:29:22.372Z,97283.84
2017-12-27T18:31:49.800Z,97288.75
2017-12-27T18:34:17.208Z,97294.28
2017-12-27T18:36:44.633Z,97297.73
2017-12-27T18:39:12.053Z,97299.05
2017-12-27T18:41:39.461Z,97299.44
2017-12-27T18:44:06.944Z,97303.16
2017-12-27T18:46:34.352Z,97311.14
2017-12-27T18:49:01.748Z,97311.14
2017-12-27T18:51:29.172Z,97321.33
2017-12-27T18:53:56.602Z,97320.53
2017-12-27T18:56:24.021Z,97327.17
2017-12-27T18:58:51.432Z,97324.66
2017-12-27T19:01:18.826Z,97327.96
2017-12-27T19:03:46.228Z,97331.30
2017-12-27T19:06:13.637Z,97331.80
2017-12-27T19:08:41.055Z,97334.86
2017-12-27T19:11:08.470Z,97332.62
2017-12-27T19:13:35.872Z,97333.13
2017-12-27T19:16:03.314Z,97332.86
2017-12-27T19:18:30.719Z,97335.51
2017-12-27T19:20:58.164Z,97340.41
2017-12-27T19:23:25.591Z,97334.95
2017-12-27T19:25:53.025Z,97345.70
2017-12-27T19:28:20.445Z,97345.43
2017-12-27T19:30:47.865Z,97350.87
2017-12-27T19:33:15.270Z,97353.38
2017-12-27T19:35:42.678Z,97360.12
2017-12-27T19:38:10.088Z,97355.89
2017-12-27T19:40:37.511Z,97351.77
2017-12-27T19:43:04.956Z,97357.08
2017-12-27T19:45:32.385Z,97363.03
2017-12-27T19:47:59.779Z,97361.58
2017-12-27T19:50:27.195Z,97364.34
2017-12-27T19:52:54.621Z,97364.34
2017-12-27T19:55:22.035Z,97363.84
2017-12-27T19:57:49.469Z,97363.16
2017-12-27T20:00:16.872Z,97363.72
2017-12-27T20:02:44.277Z,97369.66
2017-12-27T20:05:11.729Z,97368.86
2017-12-27T20:07:39.133Z,97367.54
2017-12-27T20:10:06.561Z,97377.86
2017-12-27T20:12:34.009Z,97376.04
2017-12-27T20:15:01.389Z,97380.14
2017-12-27T20:17:28.825Z,97388.59
2017-12-27T20:19:56.232Z,97386.36
2017-12-27T20:22:23.660Z,97387.55
2017-12-27T20:24:51.081Z,97396.01
2017-12-27T20:27:18.489Z,97398.92
2017-12-27T20:29:45.903Z,97404.11
2017-12-27T20:32:13.324Z,97401.86
2017-12-27T20:34:40.776Z,97403.73
2017-12-27T20:37:08.191Z,97406.47
2017-12-27T20:39:35.599Z,97416.41
2017-12-27T20:42:03.038Z,97421.44
2017-12-27T20:44:30.444Z,97428.22
2017-12-27T20:46:57.909Z,97422.75
2017-12-27T20:49:25.319Z,97427.78
2017-12-27T20:51:52.725Z,97431.87
2017-12-27T20:54:20.147Z,97431.22
2017-12-27T20:56:47.559Z,97431.91
2017-12-27T20:59:14.973Z,97432.41
2017-12-27T21:01:42.377Z,97446.47
2017-12-27T21:04:09.788Z,97448.97
2017-12-27T21:06:37.208Z,97449.10
2017-12-27T21:09:04.645Z,97454.91
2017-12-27T21:11:32.089Z,97458.57
2017-12-27T21:13:59.501Z,97466.41
2017-12-27T21:16:26.911Z,97472.30
2017-12-27T21:18:54.324Z,97478.41
2017-12-27T21:21:21.762Z,97486.39
2017-12-27T21:23:49.173Z,97487.48
2017-12-27T21:26:16.584Z,97489.31
2017-12-27T21:28:44.011Z,97504.33
2017-12-27T21:31:11.445Z,97501.58
2017-12-27T21:33:38.841Z,97511.34
2017-12-27T21:36:06.266Z,97514.27
2017-12-27T21:38:33.692Z,97520.22
2017-12-27T21:41:01.103Z,97513.16
2017-12-27T21:43:28.508Z,97520.18
2017-12-27T21:45:55.912Z,97526.45
2017-12-27T21:48:28.787Z,97532.93
2017-12-27T21:50:56.180Z,97533.52
2017-12-27T21:53:23.588Z,97531.66
2017-12-27T21:55:51.002Z,97536.35
2017-12-27T21:58:23.999Z,97541.78
2017-12-27T22:00:57.109Z,97540.96
2017-12-27T22:03:24.520Z,97550.98
2017-12-27T22:05:51.929Z,97556.23
2017-12-27T22:08:19.333Z,97559.61
2017-12-27T22:10:46.784Z,97561.80
2017-12-27T22:13:14.241Z,97563.13
2017-12-27T22:15:41.649Z,97566.31
2017-12-27T22:18:09.072Z,97568.95
2017-12-27T22:20:42.030Z,97576.38
2017-12-27T22:23:09.490Z,97572.05
2017-12-27T22:25:36.899Z,97577.34
2017-12-27T22:28:04.309Z,97589.47
2017-12-27T22:30:31.733Z,97589.16
2017-12-27T22:32:59.136Z,97595.48
2017-12-27T22:35:26.582Z,97600.23
2017-12-27T22:37:53.991Z,97591.30
2017-12-27T22:40:21.429Z,97601.73
2017-12-27T22:42:48.868Z,97602.64
2017-12-27T22:45:16.294Z,97601.96
2017-12-27T22:47:43.733Z,97617.59
2017-12-27T22:50:11.220Z,97619.92
2017-12-27T22:52:38.624Z,97616.08
2017-12-27T22:55:06.038Z,97619.28
2017-12-27T22:57:33.448Z,97625.30
2017-12-27T23:00:00.860Z,97625.25
2017-12-27T23:02:28.519Z,97631.22
2017-12-27T23:04:55.913Z,97635.05
2017-12-27T23:07:23.322Z,97638.28
2017-12-27T23:09:50.729Z,97642.89
2017-12-27T23:12:18.152Z,97644.37
2017-12-27T23:14:45.560Z,97645.83
2017-12-27T23:17:12.970Z,97650.48
2017-12-27T23:19:40.404Z,97652.23
2017-12-27T23:22:07.825Z,97652.70
2017-12-27T23:24:35.264Z,97653.96
2017-12-27T23:27:02.670Z,97663.66
2017-12-27T23:29:30.081Z,97672.45
2017-12-27T23:31:57.506Z,97683.80
2017-12-27T23:34:24.928Z,97685.20
2017-12-27T23:36:52.360Z,97690.45
2017-12-27T23:39:19.760Z,97703.95
2017-12-27T23:41:47.173Z,97705.90
2017-12-27T23:44:14.592Z,97714.81
2017-12-27T23:46:42.013Z,97719.42
2017-12-27T23:49:09.449Z,97717.89
2017-12-27T23:51:36.860Z,97735.47
2017-12-27T23:54:04.284Z,97741.24
2017-12-27T23:56:31.737Z,97749.70
2017-12-27T23:58:59.183Z,97757.52
